Time,TemperatureF,DewpointF,PressureIn,WindDirection,WindDirectionDegrees,WindSpeedMPH,WindSpeedGustMPH,Humidity,HourlyPrecipIn,Conditions,Clouds,dailyrainin,SolarRadiationWatts/m^2,SoftwareType,DateUTC
2013-07-07 00:00:00,78.3,66.0,29.84,ESE,122,3.0,11.0,66,0.00,CLR,,0.06,0.0,WeatherDisplay:10.37,2013-07-07 05:00:00,
2013-07-07 00:05:00,78.2,65.9,29.84,SE,135,2.0,8.0,66,0.00,CLR,,0.06,0.0,WeatherDisplay:10.37,2013-07-07 05:05:00,
2013-07-07 00:10:00,78.2,65.9,29.84,SE,135,3.0,9.0,66,0.00,CLR,,0.06,0.0,WeatherDisplay:10.37,2013-07-07 05:10:00,
2013-07-07 00:15:00,78.2,65.9,29.85,SE,135,3.0,10.0,66,0.00,CLR,,0.06,0.0,WeatherDisplay:10.37,2013-07-07 05:15:00,
2013-07-07 00:20:00,78.3,66.0,29.85,SSE,147,3.0,11.0,66,0.00,CLR,,0.06,0.0,WeatherDisplay:10.37,2013-07-07 05:20:00,
2013-07-07 00:25:00,78.3,66.0,29.85,SSE,147,3.0,10.0,66,0.00,CLR,,0.06,0.0,WeatherDisplay:10.37,2013-07-07 05:25:00,
2013-07-07 00:30:00,78.4,66.1,29.85,SE,126,2.0,9.0,66,0.00,CLR,,0.06,0.0,WeatherDisplay:10.37,2013-07-07 05:30:00,
2013-07-07 00:35:00,78.4,66.1,29.85,SE,127,3.0,12.0,66,0.00,CLR,,0.06,0.0,WeatherDisplay:10.37,2013-07-07 05:35:00,
2013-07-07 00:40:00,78.5,66.2,29.85,SE,124,3.0,13.0,66,0.00,CLR,,0.06,0.0,WeatherDisplay:10.37,2013-07-07 05:40:00,
2013-07-07 00:45:00,78.5,66.2,29.85,ESE,112,3.0,13.0,66,0.00,CLR,,0.06,0.0,WeatherDisplay:10.37,2013-07-07 05:45:00,
2013-07-07 00:50:00,78.6,66.3,29.85,SE,124,3.0,9.0,66,0.00,CLR,,0.06,0.0,WeatherDisplay:10.37,2013-07-07 05:50:00,
2013-07-07 00:55:00,78.7,66.4,29.85,SSE,148,5.0,13.0,66,0.00,CLR,,0.06,0.0,WeatherDisplay:10.37,2013-07-07 05:55:00,
2013-07-07 01:00:00,78.7,65.9,29.85,SE,138,3.0,16.0,65,0.00,CLR,,0.06,0.0,WeatherDisplay:10.37,2013-07-07 06:00:00,
2013-07-07 01:05:00,78.7,66.4,29.85,ESE,122,3.0,13.0,66,0.00,RA,,0.00,0.0,WeatherDisplay:10.37,2013-07-07 06:05:00,
2013-07-07 01:10:00,78.6,66.3,29.84,SE,135,3.0,13.0,66,0.00,CLR,,0.00,0.0,WeatherDisplay:10.37,2013-07-07 06:10:00,
2013-07-07 01:15:00,78.5,66.2,29.84,SE,135,3.0,9.0,66,0.00,CLR,,0.00,0.0,WeatherDisplay:10.37,2013-07-07 06:15:00,
2013-07-07 01:20:00,78.4,66.1,29.84,SSE,148,5.0,14.0,66,0.00,CLR,,0.00,0.0,WeatherDisplay:10.37,2013-07-07 06:20:00,
2013-07-07 01:25:00,78.3,66.0,29.84,SSE,158,3.0,11.0,66,0.00,CLR,,0.00,0.0,WeatherDisplay:10.37,2013-07-07 06:25:00,
2013-07-07 01:30:00,78.2,66.3,29.84,SE,145,5.0,12.0,67,0.00,CLR,,0.00,0.0,WeatherDisplay:10.37,2013-07-07 06:30:00,
2013-07-07 01:35:00,78.1,66.2,29.84,SE,135,3.0,14.0,67,0.00,CLR,,0.00,0.0,WeatherDisplay:10.37,2013-07-07 06:35:00,
2013-07-07 01:40:00,78.1,65.8,29.84,SE,135,3.0,11.0,66,0.00,CLR,,0.00,0.0,WeatherDisplay:10.37,2013-07-07 06:40:00,
2013-07-07 01:45:00,78.0,65.7,29.84,SSE,147,3.0,11.0,66,0.00,CLR,,0.00,0.0,WeatherDisplay:10.37,2013-07-07 06:45:00,
2013-07-07 01:50:00,78.0,65.7,29.84,SSE,147,3.0,9.0,66,0.00,CLR,,0.00,0.0,WeatherDisplay:10.37,2013-07-07 06:50:00,
2013-07-07 01:55:00,77.9,66.1,29.84,SE,135,2.0,9.0,67,0.00,CLR,,0.00,0.0,WeatherDisplay:10.37,2013-07-07 06:55:00,
2013-07-07 02:00:00,77.8,66.0,29.84,SE,135,3.0,8.0,67,0.00,CLR,,0.00,0.0,WeatherDisplay:10.37,2013-07-07 07:00:00,
2013-07-07 02:05:00,77.8,66.0,29.84,SE,135,3.0,10.0,67,0.00,CLR,,0.00,0.0,WeatherDisplay:10.37,2013-07-07 07:05:00,
2013-07-07 02:10:00,77.8,66.0,29.84,SSE,147,3.0,11.0,67,0.00,CLR,,0.00,0.0,WeatherDisplay:10.37,2013-07-07 07:10:00,
2013-07-07 02:15:00,77.7,65.9,29.84,South,169,3.0,10.0,67,0.00,CLR,,0.00,0.0,WeatherDisplay:10.37,2013-07-07 07:15:00,
2013-07-07 02:20:00,77.7,65.9,29.83,SSE,155,5.0,13.0,67,0.00,CLR,,0.00,0.0,WeatherDisplay:10.37,2013-07-07 07:20:00,
2013-07-07 02:25:00,77.7,65.9,29.83,SE,145,3.0,11.0,67,0.00,CLR,,0.00,0.0,WeatherDisplay:10.37,2013-07-07 07:25:00,
2013-07-07 02:30:00,77.7,65.9,29.83,SSE,148,3.0,9.0,67,0.00,CLR,,0.00,0.0,WeatherDisplay:10.37,2013-07-07 07:30:00,
2013-07-07 02:35:00,77.6,65.8,29.83,SE,135,5.0,9.0,67,0.00,CLR,,0.00,0.0,WeatherDisplay:10.37,2013-07-07 07:35:00,
2013-07-07 02:40:00,77.6,65.8,29.83,SE,135,5.0,10.0,67,0.00,CLR,,0.00,0.0,WeatherDisplay:10.37,2013-07-07 07:40:00,
2013-07-07 02:45:00,77.6,65.8,29.83,SE,135,3.0,11.0,67,0.00,CLR,,0.00,0.0,WeatherDisplay:10.37,2013-07-07 07:45:00,
2013-07-07 02:50:00,77.6,65.8,29.84,SSE,148,3.0,9.0,67,0.00,CLR,,0.00,0.0,WeatherDisplay:10.37,2013-07-07 07:50:00,
2013-07-07 02:55:00,77.6,65.8,29.84,SSE,147,3.0,10.0,67,0.00,CLR,,0.00,0.0,WeatherDisplay:10.37,2013-07-07 07:55:00,
2013-07-07 03:00:00,77.6,65.8,29.84,SE,135,3.0,10.0,67,0.00,CLR,,0.00,0.0,WeatherDisplay:10.37,2013-07-07 08:00:00,
2013-07-07 03:05:00,77.6,65.8,29.84,SE,135,3.0,11.0,67,0.00,CLR,,0.00,0.0,WeatherDisplay:10.37,2013-07-07 08:05:00,
2013-07-07 03:10:00,77.5,65.7,29.85,SE,135,3.0,9.0,67,0.00,CLR,,0.00,0.0,WeatherDisplay:10.37,2013-07-07 08:10:00,
2013-07-07 03:15:00,77.6,66.2,29.85,SE,135,2.0,8.0,68,0.00,CLR,,0.00,0.0,WeatherDisplay:10.37,2013-07-07 08:15:00,
2013-07-07 03:20:00,77.5,66.1,29.85,SE,127,1.0,6.0,68,0.00,CLR,,0.00,0.0,WeatherDisplay:10.37,2013-07-07 08:20:00,
2013-07-07 03:25:00,77.5,66.1,29.86,ESE,112,1.0,9.0,68,0.00,CLR,,0.00,0.0,WeatherDisplay:10.37,2013-07-07 08:25:00,
2013-07-07 03:30:00,77.5,66.1,29.87,ESE,112,1.0,2.0,68,0.00,CLR,,0.00,0.0,WeatherDisplay:10.37,2013-07-07 08:30:00,
2013-07-07 03:35:00,77.5,66.1,29.87,East,101,1.0,3.0,68,0.00,CLR,,0.00,0.0,WeatherDisplay:10.37,2013-07-07 08:35:00,
2013-07-07 03:40:00,77.5,66.1,29.87,East,90,2.0,5.0,68,0.00,CLR,,0.00,0.0,WeatherDisplay:10.37,2013-07-07 08:40:00,
2013-07-07 03:45:00,77.5,66.1,29.86,ESE,113,2.0,10.0,68,0.00,CLR,,0.00,0.0,WeatherDisplay:10.37,2013-07-07 08:45:00,
2013-07-07 03:50:00,77.6,65.8,29.85,SE,135,5.0,14.0,67,0.00,CLR,,0.00,0.0,WeatherDisplay:10.37,2013-07-07 08:50:00,
2013-07-07 03:55:00,77.6,67.0,29.84,SE,125,3.0,11.0,70,0.02,RA,,0.02,0.0,WeatherDisplay:10.37,2013-07-07 08:55:00,
2013-07-07 04:00:00,76.9,68.0,29.85,SE,124,3.0,9.0,74,0.04,RA,,0.04,0.0,WeatherDisplay:10.37,2013-07-07 09:00:00,
2013-07-07 04:05:00,75.6,67.5,29.85,SE,135,2.0,5.0,76,0.04,RA,,0.06,0.0,WeatherDisplay:10.37,2013-07-07 09:05:00,
2013-07-07 04:10:00,74.3,67.4,29.86,SE,127,1.0,4.0,79,0.04,RA,,0.08,0.0,WeatherDisplay:10.37,2013-07-07 09:10:00,
2013-07-07 04:15:00,73.3,67.5,29.86,ESE,112,0.0,3.0,82,0.02,CLR,,0.08,0.0,WeatherDisplay:10.37,2013-07-07 09:15:00,
2013-07-07 04:20:00,72.5,67.0,29.86,ESE,112,0.0,2.0,83,0.00,CLR,,0.08,0.0,WeatherDisplay:10.37,2013-07-07 09:20:00,
2013-07-07 04:25:00,71.9,67.1,29.86,ESE,112,0.0,1.0,85,0.00,CLR,,0.08,0.0,WeatherDisplay:10.37,2013-07-07 09:25:00,
2013-07-07 04:30:00,71.4,66.7,29.86,ESE,112,0.0,2.0,85,0.00,CLR,,0.08,0.0,WeatherDisplay:10.37,2013-07-07 09:30:00,
2013-07-07 04:35:00,71.0,66.3,29.87,ESE,112,1.0,7.0,85,0.00,CLR,,0.08,0.0,WeatherDisplay:10.37,2013-07-07 09:35:00,
2013-07-07 04:40:00,70.8,66.1,29.87,ESE,112,1.0,3.0,85,0.00,CLR,,0.08,0.0,WeatherDisplay:10.37,2013-07-07 09:40:00,
2013-07-07 04:45:00,70.8,65.7,29.87,ESE,112,2.0,5.0,84,0.00,CLR,,0.08,0.0,WeatherDisplay:10.37,2013-07-07 09:45:00,
2013-07-07 04:50:00,71.0,65.6,29.87,East,101,2.0,9.0,83,0.00,CLR,,0.08,0.0,WeatherDisplay:10.37,2013-07-07 09:50:00,
2013-07-07 04:55:00,71.3,65.5,29.88,ESE,117,3.0,9.0,82,0.00,CLR,,0.08,0.0,WeatherDisplay:10.37,2013-07-07 09:55:00,
2013-07-07 05:00:00,71.4,65.6,29.88,SE,135,2.0,7.0,82,0.00,CLR,,0.08,0.0,WeatherDisplay:10.37,2013-07-07 10:00:00,
2013-07-07 05:05:00,71.6,65.5,29.88,SSE,147,2.0,5.0,81,0.00,CLR,,0.08,0.0,WeatherDisplay:10.37,2013-07-07 10:05:00,
2013-07-07 05:10:00,71.8,65.3,29.89,SE,144,3.0,11.0,80,0.00,CLR,,0.08,0.0,WeatherDisplay:10.37,2013-07-07 10:10:00,
2013-07-07 05:15:00,72.0,65.1,29.88,SSE,148,3.0,11.0,79,0.01,RA,,0.09,0.0,WeatherDisplay:10.37,2013-07-07 10:15:00,
2013-07-07 05:20:00,72.2,65.7,29.88,SSE,158,3.0,10.0,80,0.01,CLR,,0.09,0.0,WeatherDisplay:10.37,2013-07-07 10:20:00,
2013-07-07 05:25:00,72.2,66.0,29.88,SSE,158,3.0,10.0,81,0.01,RA,,0.10,0.0,WeatherDisplay:10.37,2013-07-07 10:25:00,
2013-07-07 05:30:00,72.0,65.8,29.88,South,170,5.0,10.0,81,0.01,CLR,,0.10,0.0,WeatherDisplay:10.37,2013-07-07 10:30:00,
2013-07-07 05:35:00,71.7,66.3,29.87,SSE,160,3.0,8.0,83,0.02,RA,,0.12,0.0,WeatherDisplay:10.37,2013-07-07 10:35:00,
2013-07-07 05:40:00,71.2,66.1,29.87,SSE,160,5.0,10.0,84,0.04,RA,,0.14,0.0,WeatherDisplay:10.37,2013-07-07 10:40:00,
2013-07-07 05:45:00,70.7,66.0,29.86,South,180,6.0,12.0,85,0.02,CLR,,0.14,0.0,WeatherDisplay:10.37,2013-07-07 10:45:00,
2013-07-07 05:50:00,70.5,65.8,29.86,South,180,3.0,10.0,85,0.00,CLR,,0.14,0.0,WeatherDisplay:10.37,2013-07-07 10:50:00,
2013-07-07 05:55:00,70.5,65.4,29.85,South,180,3.0,13.0,84,0.01,RA,,0.15,0.0,WeatherDisplay:10.37,2013-07-07 10:55:00,
2013-07-07 06:00:00,70.5,65.1,29.85,South,180,3.0,11.0,83,0.01,CLR,,0.15,0.0,WeatherDisplay:10.37,2013-07-07 11:00:00,
2013-07-07 06:05:00,70.8,65.4,29.85,South,180,5.0,13.0,83,0.00,CLR,,0.15,0.0,WeatherDisplay:10.37,2013-07-07 11:05:00,
2013-07-07 06:10:00,71.2,65.1,29.85,South,180,5.0,17.0,81,0.00,CLR,,0.15,0.0,WeatherDisplay:10.37,2013-07-07 11:10:00,
2013-07-07 06:15:00,71.5,65.0,29.85,South,180,6.0,12.0,80,0.00,CLR,,0.15,0.0,WeatherDisplay:10.37,2013-07-07 11:15:00,
2013-07-07 06:20:00,71.9,64.7,29.85,South,180,5.0,14.0,78,0.00,CLR,,0.15,0.0,WeatherDisplay:10.37,2013-07-07 11:20:00,
2013-07-07 06:25:00,72.2,65.0,29.85,South,180,5.0,14.0,78,0.00,CLR,,0.15,0.0,WeatherDisplay:10.37,2013-07-07 11:25:00,
2013-07-07 06:30:00,72.5,64.9,29.86,South,180,6.0,14.0,77,0.00,CLR,,0.15,0.0,WeatherDisplay:10.37,2013-07-07 11:30:00,
2013-07-07 06:35:00,72.8,64.8,29.85,South,180,6.0,14.0,76,0.00,CLR,,0.15,0.0,WeatherDisplay:10.37,2013-07-07 11:35:00,
2013-07-07 06:40:00,73.2,64.4,29.85,South,180,7.0,17.0,74,0.00,CLR,,0.15,0.0,WeatherDisplay:10.37,2013-07-07 11:40:00,
2013-07-07 06:45:00,73.6,64.4,29.85,South,180,6.0,17.0,73,0.00,CLR,,0.15,0.0,WeatherDisplay:10.37,2013-07-07 11:45:00,
2013-07-07 06:50:00,74.0,64.0,29.85,South,180,7.0,16.0,71,0.00,CLR,,0.15,0.0,WeatherDisplay:10.37,2013-07-07 11:50:00,
2013-07-07 06:55:00,74.5,64.5,29.85,SSW,192,8.0,20.0,71,0.00,CLR,,0.15,0.0,WeatherDisplay:10.37,2013-07-07 11:55:00,
2013-07-07 07:00:00,74.7,64.3,29.85,SSW,193,6.0,15.0,70,0.00,CLR,,0.15,0.0,WeatherDisplay:10.37,2013-07-07 12:00:00,
2013-07-07 07:05:00,74.8,64.4,29.85,South,180,7.0,17.0,70,0.00,CLR,,0.15,0.0,WeatherDisplay:10.37,2013-07-07 12:05:00,
2013-07-07 07:10:00,74.9,63.6,29.85,South,190,6.0,16.0,68,0.00,CLR,,0.15,0.0,WeatherDisplay:10.37,2013-07-07 12:10:00,
2013-07-07 07:15:00,75.2,63.9,29.85,South,191,6.0,13.0,68,0.00,CLR,,0.15,0.0,WeatherDisplay:10.37,2013-07-07 12:15:00,
2013-07-07 07:20:00,75.2,63.9,29.85,South,180,7.0,18.0,68,0.00,CLR,,0.15,0.0,WeatherDisplay:10.37,2013-07-07 12:20:00,
2013-07-07 07:25:00,75.4,64.1,29.85,South,180,8.0,21.0,68,0.00,CLR,,0.15,0.0,WeatherDisplay:10.37,2013-07-07 12:25:00,
2013-07-07 07:30:00,75.6,63.9,29.85,South,180,7.0,20.0,67,0.00,CLR,,0.15,0.0,WeatherDisplay:10.37,2013-07-07 12:30:00,
2013-07-07 07:35:00,75.8,63.6,29.85,South,180,6.0,14.0,66,0.00,CLR,,0.15,2.0,WeatherDisplay:10.37,2013-07-07 12:35:00,
2013-07-07 07:40:00,75.9,63.7,29.85,South,180,7.0,18.0,66,0.00,CLR,,0.15,6.0,WeatherDisplay:10.37,2013-07-07 12:40:00,
2013-07-07 07:45:00,76.0,63.8,29.85,South,180,7.0,16.0,66,0.00,CLR,,0.15,7.0,WeatherDisplay:10.37,2013-07-07 12:45:00,
2013-07-07 07:50:00,76.3,63.7,29.85,South,180,8.0,18.0,65,0.00,CLR,,0.15,10.0,WeatherDisplay:10.37,2013-07-07 12:50:00,
2013-07-07 07:55:00,76.4,63.8,29.86,South,180,6.0,17.0,65,0.00,CLR,,0.15,12.0,WeatherDisplay:10.37,2013-07-07 12:55:00,
2013-07-07 08:00:00,76.5,63.9,29.86,South,180,6.0,15.0,65,0.00,OVC,,0.15,14.0,WeatherDisplay:10.37,2013-07-07 13:00:00,
2013-07-07 08:05:00,76.6,63.5,29.86,South,180,6.0,16.0,64,0.00,OVC,,0.15,17.0,WeatherDisplay:10.37,2013-07-07 13:05:00,
2013-07-07 08:10:00,76.7,63.6,29.86,South,180,7.0,16.0,64,0.00,OVC,,0.15,21.0,WeatherDisplay:10.37,2013-07-07 13:10:00,
2013-07-07 08:15:00,76.7,63.6,29.87,South,180,5.0,12.0,64,0.00,OVC,,0.15,28.0,WeatherDisplay:10.37,2013-07-07 13:15:00,
2013-07-07 08:20:00,76.6,63.5,29.87,South,180,3.0,13.0,64,0.00,OVC,,0.15,32.0,WeatherDisplay:10.37,2013-07-07 13:20:00,
2013-07-07 08:25:00,76.7,63.6,29.87,SSW,193,6.0,20.0,64,0.00,OVC,,0.15,38.0,WeatherDisplay:10.37,2013-07-07 13:25:00,
2013-07-07 08:30:00,76.7,63.2,29.87,SSW,192,5.0,13.0,63,0.00,OVC,,0.15,42.0,WeatherDisplay:10.37,2013-07-07 13:30:00,
2013-07-07 08:35:00,76.7,63.6,29.87,South,180,6.0,15.0,64,0.00,OVC,,0.15,49.0,WeatherDisplay:10.37,2013-07-07 13:35:00,
2013-07-07 08:40:00,76.8,63.2,29.87,South,180,5.0,15.0,63,0.00,OVC,,0.15,55.0,WeatherDisplay:10.37,2013-07-07 13:40:00,
2013-07-07 08:45:00,76.8,63.7,29.88,South,180,5.0,15.0,64,0.00,OVC,,0.15,60.0,WeatherDisplay:10.37,2013-07-07 13:45:00,
2013-07-07 08:50:00,76.7,63.6,29.88,South,180,5.0,11.0,64,0.00,OVC,,0.15,64.0,WeatherDisplay:10.37,2013-07-07 13:50:00,
2013-07-07 08:55:00,76.7,64.0,29.88,South,170,3.0,11.0,65,0.00,OVC,,0.15,67.0,WeatherDisplay:10.37,2013-07-07 13:55:00,
2013-07-07 09:00:00,76.6,64.0,29.88,SSE,167,3.0,10.0,65,0.00,OVC,,0.15,69.0,WeatherDisplay:10.37,2013-07-07 14:00:00,
2013-07-07 09:05:00,76.4,63.8,29.89,South,180,3.0,9.0,65,0.00,OVC,,0.15,72.0,WeatherDisplay:10.37,2013-07-07 14:05:00,
2013-07-07 09:10:00,76.4,63.8,29.89,SSE,161,3.0,8.0,65,0.00,OVC,,0.15,78.0,WeatherDisplay:10.37,2013-07-07 14:10:00,
2013-07-07 09:15:00,76.3,64.1,29.89,SE,135,3.0,13.0,66,0.00,OVC,,0.15,83.0,WeatherDisplay:10.37,2013-07-07 14:15:00,
2013-07-07 09:20:00,76.2,63.6,29.89,SSE,158,3.0,9.0,65,0.00,OVC,,0.15,88.0,WeatherDisplay:10.37,2013-07-07 14:20:00,
2013-07-07 09:25:00,76.2,64.0,29.89,SSE,167,3.0,11.0,66,0.00,OVC,,0.15,94.0,WeatherDisplay:10.37,2013-07-07 14:25:00,
2013-07-07 09:30:00,76.2,64.0,29.89,South,169,3.0,12.0,66,0.00,OVC,,0.15,99.0,WeatherDisplay:10.37,2013-07-07 14:30:00,
2013-07-07 09:35:00,76.2,64.0,29.90,South,180,3.0,13.0,66,0.00,OVC,,0.15,101.0,WeatherDisplay:10.37,2013-07-07 14:35:00,
2013-07-07 09:40:00,76.3,64.1,29.90,South,180,3.0,8.0,66,0.00,OVC,,0.15,105.0,WeatherDisplay:10.37,2013-07-07 14:40:00,
2013-07-07 09:45:00,76.3,64.1,29.90,South,171,3.0,10.0,66,0.00,OVC,,0.15,106.0,WeatherDisplay:10.37,2013-07-07 14:45:00,
2013-07-07 09:50:00,76.2,64.0,29.91,South,169,3.0,9.0,66,0.00,OVC,,0.15,109.0,WeatherDisplay:10.37,2013-07-07 14:50:00,
2013-07-07 09:55:00,76.3,64.1,29.91,South,180,3.0,10.0,66,0.00,OVC,,0.15,109.0,WeatherDisplay:10.37,2013-07-07 14:55:00,
2013-07-07 10:00:00,76.3,64.1,29.91,South,180,3.0,14.0,66,0.00,OVC,,0.15,107.0,WeatherDisplay:10.37,2013-07-07 15:00:00,
2013-07-07 10:05:00,76.4,64.6,29.91,South,180,3.0,8.0,67,0.00,OVC,,0.15,105.0,WeatherDisplay:10.37,2013-07-07 15:05:00,
2013-07-07 10:10:00,76.4,64.2,29.91,SSE,158,3.0,10.0,66,0.00,OVC,,0.15,111.0,WeatherDisplay:10.37,2013-07-07 15:10:00,
2013-07-07 10:15:00,76.5,64.3,29.91,SSE,158,3.0,7.0,66,0.00,OVC,,0.15,126.0,WeatherDisplay:10.37,2013-07-07 15:15:00,
2013-07-07 10:20:00,76.6,64.8,29.90,SSE,158,3.0,10.0,67,0.00,OVC,,0.15,114.0,WeatherDisplay:10.37,2013-07-07 15:20:00,
2013-07-07 10:25:00,76.7,64.9,29.91,SSE,158,3.0,8.0,67,0.00,OVC,,0.15,121.0,WeatherDisplay:10.37,2013-07-07 15:25:00,
2013-07-07 10:30:00,76.8,65.0,29.90,South,180,3.0,9.0,67,0.00,OVC,,0.15,185.0,WeatherDisplay:10.37,2013-07-07 15:30:00,
2013-07-07 10:35:00,77.0,64.8,29.90,SSE,158,3.0,9.0,66,0.00,OVC,,0.15,206.0,WeatherDisplay:10.37,2013-07-07 15:35:00,
2013-07-07 10:40:00,77.3,65.1,29.90,SSE,158,3.0,9.0,66,0.00,OVC,,0.15,179.0,WeatherDisplay:10.37,2013-07-07 15:40:00,
2013-07-07 10:45:00,77.6,64.9,29.90,South,180,5.0,9.0,65,0.00,OVC,,0.15,182.0,WeatherDisplay:10.37,2013-07-07 15:45:00,
2013-07-07 10:50:00,77.8,65.5,29.90,South,180,3.0,11.0,66,0.00,OVC,,0.15,121.0,WeatherDisplay:10.37,2013-07-07 15:50:00,
2013-07-07 10:55:00,77.9,65.2,29.91,South,180,5.0,11.0,65,0.00,OVC,,0.15,126.0,WeatherDisplay:10.37,2013-07-07 15:55:00,
2013-07-07 11:00:00,78.1,65.4,29.90,South,180,3.0,8.0,65,0.00,OVC,,0.15,159.0,WeatherDisplay:10.37,2013-07-07 16:00:00,
2013-07-07 11:05:00,78.5,65.8,29.90,South,169,3.0,12.0,65,0.00,OVC,,0.15,178.0,WeatherDisplay:10.37,2013-07-07 16:05:00,
2013-07-07 11:10:00,79.1,66.3,29.90,South,171,3.0,8.0,65,0.00,OVC,,0.15,208.0,WeatherDisplay:10.37,2013-07-07 16:10:00,
2013-07-07 11:15:00,79.8,65.6,29.90,South,180,3.0,9.0,62,0.00,OVC,,0.15,139.0,WeatherDisplay:10.37,2013-07-07 16:15:00,
2013-07-07 11:20:00,80.4,66.2,29.90,SSE,158,3.0,11.0,62,0.00,OVC,,0.15,210.0,WeatherDisplay:10.37,2013-07-07 16:20:00,
2013-07-07 11:25:00,81.0,66.8,29.90,SSE,158,3.0,13.0,62,0.00,OVC,,0.15,285.0,WeatherDisplay:10.37,2013-07-07 16:25:00,
2013-07-07 11:30:00,81.6,67.3,29.90,SSE,161,3.0,8.0,62,0.00,OVC,,0.15,387.0,WeatherDisplay:10.37,2013-07-07 16:30:00,
2013-07-07 11:35:00,82.4,66.6,29.90,SSE,148,3.0,14.0,59,0.00,OVC,,0.15,227.0,WeatherDisplay:10.37,2013-07-07 16:35:00,
2013-07-07 11:40:00,83.0,66.7,29.90,SSE,165,2.0,8.0,58,0.00,OVC,,0.15,185.0,WeatherDisplay:10.37,2013-07-07 16:40:00,
2013-07-07 11:45:00,83.7,66.3,29.89,South,180,3.0,11.0,56,0.00,OVC,,0.15,172.0,WeatherDisplay:10.37,2013-07-07 16:45:00,
2013-07-07 11:50:00,84.4,65.9,29.89,South,180,5.0,11.0,54,0.00,OVC,,0.15,179.0,WeatherDisplay:10.37,2013-07-07 16:50:00,
2013-07-07 11:55:00,84.8,65.8,29.89,South,180,5.0,12.0,53,0.00,OVC,,0.15,170.0,WeatherDisplay:10.37,2013-07-07 16:55:00,
2013-07-07 12:00:00,85.3,65.7,29.89,South,180,3.0,13.0,52,0.00,OVC,,0.15,221.0,WeatherDisplay:10.37,2013-07-07 17:00:00,
2013-07-07 12:05:00,86.0,66.3,29.89,South,180,5.0,14.0,52,0.00,OVC,,0.15,240.0,WeatherDisplay:10.37,2013-07-07 17:05:00,
2013-07-07 12:10:00,86.5,65.7,29.89,South,180,6.0,15.0,50,0.00,OVC,,0.15,216.0,WeatherDisplay:10.37,2013-07-07 17:10:00,
2013-07-07 12:15:00,86.8,65.3,29.89,South,180,6.0,15.0,49,0.00,OVC,,0.15,172.0,WeatherDisplay:10.37,2013-07-07 17:15:00,
2013-07-07 12:20:00,87.1,65.6,29.88,South,180,5.0,10.0,49,0.00,OVC,,0.15,176.0,WeatherDisplay:10.37,2013-07-07 17:20:00,
2013-07-07 12:25:00,87.4,65.3,29.88,South,180,7.0,18.0,48,0.00,OVC,,0.15,267.0,WeatherDisplay:10.37,2013-07-07 17:25:00,
2013-07-07 12:30:00,87.7,66.2,29.88,South,180,5.0,12.0,49,0.00,OVC,,0.15,202.0,WeatherDisplay:10.37,2013-07-07 17:30:00,
2013-07-07 12:35:00,88.1,65.3,29.88,South,169,5.0,12.0,47,0.00,OVC,,0.15,218.0,WeatherDisplay:10.37,2013-07-07 17:35:00,
2013-07-07 12:40:00,88.2,66.0,29.88,South,180,5.0,14.0,48,0.00,OVC,,0.15,267.0,WeatherDisplay:10.37,2013-07-07 17:40:00,
2013-07-07 12:45:00,88.3,66.1,29.88,South,191,5.0,14.0,48,0.00,OVC,,0.15,188.0,WeatherDisplay:10.37,2013-07-07 17:45:00,
2013-07-07 12:50:00,88.7,65.9,29.88,South,191,5.0,12.0,47,0.00,OVC,,0.15,224.0,WeatherDisplay:10.37,2013-07-07 17:50:00,
2013-07-07 12:55:00,89.2,65.7,29.88,South,191,5.0,14.0,46,0.00,OVC,,0.15,405.0,WeatherDisplay:10.37,2013-07-07 17:55:00,
2013-07-07 13:00:00,89.8,65.6,29.88,South,180,5.0,14.0,45,0.00,OVC,,0.15,262.0,WeatherDisplay:10.37,2013-07-07 18:00:00,
2013-07-07 13:05:00,90.4,66.2,29.88,South,180,6.0,15.0,45,0.00,OVC,,0.15,555.0,WeatherDisplay:10.37,2013-07-07 18:05:00,
2013-07-07 13:10:00,90.8,65.9,29.88,South,180,5.0,13.0,44,0.00,OVC,,0.15,827.0,WeatherDisplay:10.37,2013-07-07 18:10:00,
2013-07-07 13:15:00,91.2,68.2,29.88,South,180,5.0,13.0,47,0.00,OVC,,0.15,792.0,WeatherDisplay:10.37,2013-07-07 18:15:00,
2013-07-07 13:20:00,91.8,66.8,29.88,South,180,5.0,14.0,44,0.00,OVC,,0.15,845.0,WeatherDisplay:10.37,2013-07-07 18:20:00,
2013-07-07 13:25:00,92.4,66.0,29.88,South,190,3.0,13.0,42,0.00,OVC,,0.15,851.0,WeatherDisplay:10.37,2013-07-07 18:25:00,
2013-07-07 13:30:00,93.0,67.2,29.87,South,191,3.0,13.0,43,0.00,OVC,,0.15,863.0,WeatherDisplay:10.37,2013-07-07 18:30:00,
2013-07-07 13:35:00,93.4,64.7,29.88,South,191,3.0,13.0,39,0.00,OVC,,0.15,765.0,WeatherDisplay:10.37,2013-07-07 18:35:00,
2013-07-07 13:40:00,93.6,64.9,29.87,South,191,3.0,11.0,39,0.00,OVC,,0.15,770.0,WeatherDisplay:10.37,2013-07-07 18:40:00,
2013-07-07 13:45:00,93.7,64.3,29.87,SSW,193,6.0,15.0,38,0.00,OVC,,0.15,740.0,WeatherDisplay:10.37,2013-07-07 18:45:00,
2013-07-07 13:50:00,93.7,64.3,29.88,SSW,192,5.0,13.0,38,0.00,OVC,,0.15,700.0,WeatherDisplay:10.37,2013-07-07 18:50:00,
2013-07-07 13:55:00,93.9,63.7,29.87,South,180,7.0,15.0,37,0.00,OVC,,0.15,846.0,WeatherDisplay:10.37,2013-07-07 18:55:00,
2013-07-07 14:00:00,94.0,65.3,29.87,South,190,6.0,15.0,39,0.00,OVC,,0.15,870.0,WeatherDisplay:10.37,2013-07-07 19:00:00,
2013-07-07 14:05:00,94.5,65.0,29.87,SSW,192,5.0,14.0,38,0.00,OVC,,0.15,870.0,WeatherDisplay:10.37,2013-07-07 19:05:00,
2013-07-07 14:10:00,94.7,65.9,29.87,South,180,5.0,12.0,39,0.00,OVC,,0.15,877.0,WeatherDisplay:10.37,2013-07-07 19:10:00,
2013-07-07 14:15:00,94.9,65.3,29.87,South,180,3.0,13.0,38,0.00,OVC,,0.15,876.0,WeatherDisplay:10.37,2013-07-07 19:15:00,
2013-07-07 14:20:00,95.1,65.5,29.86,South,180,5.0,17.0,38,0.00,OVC,,0.15,869.0,WeatherDisplay:10.37,2013-07-07 19:20:00,
2013-07-07 14:25:00,95.4,65.8,29.87,South,180,5.0,14.0,38,0.00,OVC,,0.15,846.0,WeatherDisplay:10.37,2013-07-07 19:25:00,
2013-07-07 14:30:00,95.6,65.9,29.87,South,180,3.0,8.0,38,0.00,OVC,,0.15,885.0,WeatherDisplay:10.37,2013-07-07 19:30:00,
2013-07-07 14:35:00,95.8,66.1,29.86,South,180,5.0,15.0,38,0.00,OVC,,0.15,894.0,WeatherDisplay:10.37,2013-07-07 19:35:00,
2013-07-07 14:40:00,95.8,66.1,29.86,SSE,158,5.0,16.0,38,0.00,OVC,,0.15,898.0,WeatherDisplay:10.37,2013-07-07 19:40:00,
2013-07-07 14:45:00,95.8,65.4,29.86,SE,144,3.0,8.0,37,0.00,OVC,,0.15,898.0,WeatherDisplay:10.37,2013-07-07 19:45:00,
2013-07-07 14:50:00,96.0,66.3,29.86,South,173,6.0,13.0,38,0.00,OVC,,0.15,898.0,WeatherDisplay:10.37,2013-07-07 19:50:00,
2013-07-07 14:55:00,96.0,64.7,29.86,South,180,7.0,12.0,36,0.00,OVC,,0.15,897.0,WeatherDisplay:10.37,2013-07-07 19:55:00,
2013-07-07 15:00:00,95.8,65.4,29.86,South,180,6.0,20.0,37,0.00,OVC,,0.15,833.0,WeatherDisplay:10.37,2013-07-07 20:00:00,
2013-07-07 15:05:00,95.9,67.0,29.86,SSE,162,3.0,12.0,39,0.00,OVC,,0.15,835.0,WeatherDisplay:10.37,2013-07-07 20:05:00,
2013-07-07 15:10:00,96.2,64.1,29.86,SSE,160,5.0,13.0,35,0.00,OVC,,0.15,893.0,WeatherDisplay:10.37,2013-07-07 20:10:00,
2013-07-07 15:15:00,96.4,65.1,29.85,South,190,3.0,10.0,36,0.00,OVC,,0.15,882.0,WeatherDisplay:10.37,2013-07-07 20:15:00,
2013-07-07 15:20:00,96.4,65.9,29.85,South,189,6.0,11.0,37,0.00,OVC,,0.15,872.0,WeatherDisplay:10.37,2013-07-07 20:20:00,
2013-07-07 15:25:00,96.1,64.0,29.85,SSE,158,6.0,16.0,35,0.00,OVC,,0.15,859.0,WeatherDisplay:10.37,2013-07-07 20:25:00,
2013-07-07 15:30:00,96.0,64.7,29.85,SSE,158,6.0,15.0,36,0.00,OVC,,0.15,850.0,WeatherDisplay:10.37,2013-07-07 20:30:00,
2013-07-07 15:35:00,96.4,64.3,29.85,South,180,6.0,12.0,35,0.00,OVC,,0.15,856.0,WeatherDisplay:10.37,2013-07-07 20:35:00,
2013-07-07 15:40:00,96.6,64.5,29.85,South,180,5.0,13.0,35,0.00,OVC,,0.15,833.0,WeatherDisplay:10.37,2013-07-07 20:40:00,
2013-07-07 15:45:00,96.7,62.9,29.85,South,180,7.0,16.0,33,0.00,OVC,,0.15,838.0,WeatherDisplay:10.37,2013-07-07 20:45:00,
2013-07-07 15:50:00,96.6,65.3,29.84,South,180,7.0,16.0,36,0.00,OVC,,0.15,820.0,WeatherDisplay:10.37,2013-07-07 20:50:00,
2013-07-07 15:55:00,96.7,64.5,29.84,South,171,5.0,15.0,35,0.00,OVC,,0.15,861.0,WeatherDisplay:10.37,2013-07-07 20:55:00,
2013-07-07 16:00:00,96.9,66.3,29.84,SSE,166,3.0,10.0,37,0.00,OVC,,0.15,876.0,WeatherDisplay:10.37,2013-07-07 21:00:00,
2013-07-07 16:05:00,97.4,66.8,29.84,South,180,5.0,11.0,37,0.00,OVC,,0.15,878.0,WeatherDisplay:10.37,2013-07-07 21:05:00,
2013-07-07 16:10:00,97.7,63.7,29.84,South,180,7.0,18.0,33,0.00,OVC,,0.15,852.0,WeatherDisplay:10.37,2013-07-07 21:10:00,
2013-07-07 16:15:00,97.9,64.8,29.84,South,180,6.0,14.0,34,0.00,OVC,,0.15,846.0,WeatherDisplay:10.37,2013-07-07 21:15:00,
2013-07-07 16:20:00,98.0,66.5,29.84,South,180,5.0,16.0,36,0.00,OVC,,0.15,830.0,WeatherDisplay:10.37,2013-07-07 21:20:00,
2013-07-07 16:25:00,98.3,63.4,29.84,South,180,6.0,16.0,32,0.00,OVC,,0.15,834.0,WeatherDisplay:10.37,2013-07-07 21:25:00,
2013-07-07 16:30:00,98.2,63.3,29.84,South,180,6.0,14.0,32,0.00,OVC,,0.15,824.0,WeatherDisplay:10.37,2013-07-07 21:30:00,
2013-07-07 16:35:00,98.4,64.3,29.84,South,180,3.0,15.0,33,0.00,OVC,,0.15,815.0,WeatherDisplay:10.37,2013-07-07 21:35:00,
2013-07-07 16:40:00,98.3,64.3,29.84,South,180,3.0,12.0,33,0.00,OVC,,0.15,810.0,WeatherDisplay:10.37,2013-07-07 21:40:00,
2013-07-07 16:45:00,98.2,63.3,29.84,South,180,5.0,15.0,32,0.00,OVC,,0.15,800.0,WeatherDisplay:10.37,2013-07-07 21:45:00,
2013-07-07 16:50:00,98.3,64.3,29.84,South,169,5.0,14.0,33,0.00,OVC,,0.15,788.0,WeatherDisplay:10.37,2013-07-07 21:50:00,
2013-07-07 16:55:00,98.3,62.5,29.84,South,171,7.0,14.0,31,0.00,OVC,,0.15,783.0,WeatherDisplay:10.37,2013-07-07 21:55:00,
2013-07-07 17:00:00,98.3,63.4,29.83,South,180,3.0,10.0,32,0.00,OVC,,0.15,774.0,WeatherDisplay:10.37,2013-07-07 22:00:00,
2013-07-07 17:05:00,98.5,66.1,29.83,SSE,161,3.0,10.0,35,0.00,OVC,,0.15,761.0,WeatherDisplay:10.37,2013-07-07 22:05:00,
2013-07-07 17:10:00,98.8,62.9,29.83,SSE,149,5.0,12.0,31,0.00,OVC,,0.15,752.0,WeatherDisplay:10.37,2013-07-07 22:10:00,
2013-07-07 17:15:00,99.0,64.0,29.83,South,170,6.0,14.0,32,0.00,OVC,,0.15,741.0,WeatherDisplay:10.37,2013-07-07 22:15:00,
2013-07-07 17:20:00,99.1,63.2,29.83,South,180,5.0,12.0,31,0.00,OVC,,0.15,731.0,WeatherDisplay:10.37,2013-07-07 22:20:00,
2013-07-07 17:25:00,99.1,64.1,29.83,South,180,3.0,14.0,32,0.00,OVC,,0.15,719.0,WeatherDisplay:10.37,2013-07-07 22:25:00,
2013-07-07 17:30:00,99.1,65.0,29.83,SSE,152,3.0,8.0,33,0.00,OVC,,0.15,706.0,WeatherDisplay:10.37,2013-07-07 22:30:00,
2013-07-07 17:35:00,99.2,65.0,29.83,SSE,159,6.0,19.0,33,0.00,OVC,,0.15,695.0,WeatherDisplay:10.37,2013-07-07 22:35:00,
2013-07-07 17:40:00,99.0,63.1,29.82,South,180,5.0,14.0,31,0.00,OVC,,0.15,691.0,WeatherDisplay:10.37,2013-07-07 22:40:00,
2013-07-07 17:45:00,99.1,64.1,29.83,South,191,5.0,15.0,32,0.00,OVC,,0.15,678.0,WeatherDisplay:10.37,2013-07-07 22:45:00,
2013-07-07 17:50:00,99.1,65.0,29.82,SSW,202,3.0,10.0,33,0.00,OVC,,0.15,665.0,WeatherDisplay:10.37,2013-07-07 22:50:00,
2013-07-07 17:55:00,99.1,63.2,29.82,South,177,5.0,18.0,31,0.00,OVC,,0.15,650.0,WeatherDisplay:10.37,2013-07-07 22:55:00,
2013-07-07 18:00:00,99.0,64.0,29.82,South,169,5.0,13.0,32,0.00,OVC,,0.15,635.0,WeatherDisplay:10.37,2013-07-07 23:00:00,
2013-07-07 18:05:00,99.0,64.0,29.82,SSE,158,5.0,15.0,32,0.00,OVC,,0.15,619.0,WeatherDisplay:10.37,2013-07-07 23:05:00,
2013-07-07 18:10:00,98.8,63.8,29.81,SE,145,3.0,10.0,32,0.00,OVC,,0.15,610.0,WeatherDisplay:10.37,2013-07-07 23:10:00,
2013-07-07 18:15:00,98.5,62.6,29.82,SSE,158,7.0,17.0,31,0.00,OVC,,0.15,596.0,WeatherDisplay:10.37,2013-07-07 23:15:00,
2013-07-07 18:20:00,98.3,63.4,29.82,SSE,147,6.0,15.0,32,0.00,OVC,,0.15,584.0,WeatherDisplay:10.37,2013-07-07 23:20:00,
2013-07-07 18:25:00,98.2,63.3,29.81,SE,135,5.0,14.0,32,0.00,OVC,,0.15,569.0,WeatherDisplay:10.37,2013-07-07 23:25:00,
2013-07-07 18:30:00,97.9,63.0,29.81,SE,135,6.0,14.0,32,0.00,OVC,,0.15,542.0,WeatherDisplay:10.37,2013-07-07 23:30:00,
2013-07-07 18:35:00,97.7,63.7,29.81,SSE,153,3.0,11.0,33,0.00,OVC,,0.15,544.0,WeatherDisplay:10.37,2013-07-07 23:35:00,
2013-07-07 18:40:00,97.8,63.8,29.81,SSE,158,3.0,15.0,33,0.00,OVC,,0.15,536.0,WeatherDisplay:10.37,2013-07-07 23:40:00,
2013-07-07 18:45:00,97.7,63.7,29.81,SSE,148,5.0,10.0,33,0.00,OVC,,0.15,524.0,WeatherDisplay:10.37,2013-07-07 23:45:00,
2013-07-07 18:50:00,97.7,62.9,29.81,South,170,6.0,17.0,32,0.00,OVC,,0.15,509.0,WeatherDisplay:10.37,2013-07-07 23:50:00,
2013-07-07 18:55:00,97.6,63.6,29.81,South,180,6.0,17.0,33,0.00,OVC,,0.15,484.0,WeatherDisplay:10.37,2013-07-07 23:55:00,
2013-07-07 19:00:00,97.7,63.7,29.81,South,180,3.0,9.0,33,0.00,CLR,,0.15,467.0,WeatherDisplay:10.37,2013-07-08 00:00:00,
2013-07-07 19:05:00,97.6,63.6,29.81,SSE,155,5.0,18.0,33,0.00,CLR,,0.15,380.0,WeatherDisplay:10.37,2013-07-08 00:05:00,
2013-07-07 19:10:00,97.6,64.5,29.80,SE,144,3.0,10.0,34,0.00,CLR,,0.15,129.0,WeatherDisplay:10.37,2013-07-08 00:10:00,
2013-07-07 19:15:00,97.4,64.3,29.81,SE,143,6.0,22.0,34,0.00,CLR,,0.15,119.0,WeatherDisplay:10.37,2013-07-08 00:15:00,
2013-07-07 19:23:00,93.2,64.6,29.82,SE,139,22.0,22.0,39,0.00,CLR,,0.15,70.0,WeatherDisplay:10.37,2013-07-08 00:23:00,
2013-07-07 19:24:00,93.2,64.6,29.82,SE,136,11.5,11.5,39,0.00,CLR,,0.15,70.0,WeatherDisplay:10.37,2013-07-08 00:24:00,
2013-07-07 19:29:00,93.0,65.1,29.81,ESE,102,4.6,4.6,40,0.00,RA,,0.15,69.0,WeatherDisplay:10.37,2013-07-08 00:29:00,
2013-07-07 19:34:00,92.6,65.5,29.82,SE,138,11.5,11.5,41,0.00,SCT,,0.15,63.0,WeatherDisplay:10.37,2013-07-08 00:34:00,
2013-07-07 19:39:00,92.3,65.2,29.82,South,173,8.1,8.1,41,0.00,SCT,,0.15,62.0,WeatherDisplay:10.37,2013-07-08 00:39:00,
2013-07-07 19:44:00,92.0,65.6,29.82,ESE,108,7.0,7.0,42,0.00,FEW,,0.15,58.0,WeatherDisplay:10.37,2013-07-08 00:44:00,
2013-07-07 19:49:00,91.7,66.0,29.82,ESE,106,6.9,6.9,43,0.00,FEW,,0.15,54.0,WeatherDisplay:10.37,2013-07-08 00:49:00,
2013-07-07 19:54:00,91.4,65.8,29.83,SSE,157,10.4,10.4,43,0.00,FEW,,0.15,51.0,WeatherDisplay:10.37,2013-07-08 00:54:00,
2013-07-07 19:59:00,91.1,65.5,29.83,SE,132,4.6,4.6,43,0.00,FEW,,0.15,46.0,WeatherDisplay:10.37,2013-07-08 00:59:00,
2013-07-07 20:04:00,90.8,65.9,29.83,South,169,3.5,3.5,44,0.00,FEW,,0.15,39.0,WeatherDisplay:10.37,2013-07-08 01:04:00,
2013-07-07 20:09:00,90.4,65.5,29.83,ESE,106,1.2,2.9,44,0.00,FEW,,0.15,32.0,WeatherDisplay:10.37,2013-07-08 01:09:00,
2013-07-07 20:14:00,90.0,65.8,29.83,SE,142,9.2,9.2,45,0.00,FEW,,0.15,25.0,WeatherDisplay:10.37,2013-07-08 01:14:00,
2013-07-07 20:19:00,89.7,65.5,29.83,SSE,149,10.4,10.4,45,0.00,FEW,,0.15,14.0,WeatherDisplay:10.37,2013-07-08 01:19:00,
2013-07-07 20:24:00,89.3,65.2,29.83,East,95,6.9,6.9,45,0.00,FEW,,0.15,11.0,WeatherDisplay:10.37,2013-07-08 01:24:00,
2013-07-07 20:29:00,89.0,64.9,29.83,SSE,152,13.8,13.8,45,0.00,FEW,,0.15,9.0,WeatherDisplay:10.37,2013-07-08 01:29:00,
2013-07-07 20:34:00,88.7,65.3,29.83,SE,127,13.8,13.8,46,0.00,FEW,,0.15,7.0,WeatherDisplay:10.37,2013-07-08 01:34:00,
2013-07-07 20:39:00,88.4,65.0,29.83,ESE,113,10.4,10.4,46,0.00,FEW,,0.15,5.0,WeatherDisplay:10.37,2013-07-08 01:39:00,
2013-07-07 20:44:00,88.2,64.8,29.84,SE,126,7.0,7.0,46,0.00,FEW,,0.15,5.0,WeatherDisplay:10.37,2013-07-08 01:44:00,
2013-07-07 20:49:00,87.9,65.2,29.84,SE,130,4.6,4.6,47,0.00,FEW,,0.15,0.0,WeatherDisplay:10.37,2013-07-08 01:49:00,
2013-07-07 20:54:00,87.7,65.0,29.84,SE,138,4.6,4.6,47,0.00,FEW,,0.15,0.0,WeatherDisplay:10.37,2013-07-08 01:54:00,
2013-07-07 20:59:00,87.4,65.3,29.84,SE,145,8.1,8.1,48,0.00,FEW,,0.15,0.0,WeatherDisplay:10.37,2013-07-08 01:59:00,
2013-07-07 21:04:00,87.2,65.1,29.84,ESE,118,9.0,9.0,48,0.00,FEW,,0.15,0.0,WeatherDisplay:10.37,2013-07-08 02:04:00,
2013-07-07 21:09:00,86.9,65.4,29.84,SSE,149,6.9,6.9,49,0.00,FEW,,0.15,0.0,WeatherDisplay:10.37,2013-07-08 02:09:00,
2013-07-07 21:14:00,86.6,65.2,29.84,SE,134,6.9,6.9,49,0.00,FEW,,0.15,0.0,WeatherDisplay:10.37,2013-07-08 02:14:00,
2013-07-07 21:19:00,86.4,65.0,29.84,SSE,154,3.5,3.5,49,0.00,FEW,,0.15,0.0,WeatherDisplay:10.37,2013-07-08 02:19:00,
2013-07-07 21:24:00,86.2,65.4,29.85,SSE,150,6.9,6.9,50,0.00,FEW,,0.15,0.0,WeatherDisplay:10.37,2013-07-08 02:24:00,
2013-07-07 21:29:00,86.0,65.2,29.85,SE,140,4.6,4.6,50,0.00,FEW,,0.15,0.0,WeatherDisplay:10.37,2013-07-08 02:29:00,
2013-07-07 21:34:00,85.7,64.9,29.85,SSE,165,5.0,5.0,50,0.00,FEW,,0.15,0.0,WeatherDisplay:10.37,2013-07-08 02:34:00,
2013-07-07 21:39:00,85.6,65.4,29.85,ESE,118,6.9,6.9,51,0.00,FEW,,0.15,0.0,WeatherDisplay:10.37,2013-07-08 02:39:00,
2013-07-07 21:44:00,85.5,65.3,29.86,ESE,120,5.8,5.8,51,0.00,FEW,,0.15,0.0,WeatherDisplay:10.37,2013-07-08 02:44:00,
2013-07-07 21:49:00,85.3,65.1,29.86,ESE,114,11.5,11.5,51,0.00,FEW,,0.15,0.0,WeatherDisplay:10.37,2013-07-08 02:49:00,
2013-07-07 21:54:00,85.2,65.6,29.86,SE,138,9.2,9.2,52,0.00,FEW,,0.15,0.0,WeatherDisplay:10.37,2013-07-08 02:54:00,
2013-07-07 21:59:00,85.1,65.5,29.86,South,184,8.1,8.1,52,0.00,FEW,,0.15,0.0,WeatherDisplay:10.37,2013-07-08 02:59:00,
2013-07-07 22:04:00,84.9,65.3,29.87,SSE,150,5.8,5.8,52,0.00,SCT,,0.15,0.0,WeatherDisplay:10.37,2013-07-08 03:04:00,
2013-07-07 22:09:00,84.7,65.1,29.87,SE,125,8.1,8.1,52,0.00,SCT,,0.15,0.0,WeatherDisplay:10.37,2013-07-08 03:09:00,
2013-07-07 22:14:00,84.6,65.0,29.86,SSW,206,10.4,10.4,52,0.00,SCT,,0.15,0.0,WeatherDisplay:10.37,2013-07-08 03:14:00,
2013-07-07 22:19:00,84.5,65.5,29.87,ESE,121,5.8,5.8,53,0.00,SCT,,0.15,0.0,WeatherDisplay:10.37,2013-07-08 03:19:00,
2013-07-07 22:24:00,84.3,65.3,29.87,SE,135,4.6,4.6,53,0.00,SCT,,0.15,0.0,WeatherDisplay:10.37,2013-07-08 03:24:00,
2013-07-07 22:29:00,84.1,65.7,29.88,South,182,5.0,5.0,54,0.00,SCT,,0.15,0.0,WeatherDisplay:10.37,2013-07-08 03:29:00,
2013-07-07 22:34:00,84.0,65.6,29.88,SE,139,4.6,4.6,54,0.00,SCT,,0.15,0.0,WeatherDisplay:10.37,2013-07-08 03:34:00,
2013-07-07 22:39:00,83.9,66.0,29.88,SE,124,5.8,5.8,55,0.00,SCT,,0.15,0.0,WeatherDisplay:10.37,2013-07-08 03:39:00,
2013-07-07 22:44:00,83.7,65.8,29.88,ESE,119,4.6,4.6,55,0.00,SCT,,0.15,0.0,WeatherDisplay:10.37,2013-07-08 03:44:00,
2013-07-07 22:49:00,83.6,65.7,29.88,SSE,167,8.1,8.1,55,0.00,SCT,,0.15,0.0,WeatherDisplay:10.37,2013-07-08 03:49:00,
2013-07-07 22:54:00,83.4,66.1,29.88,SSE,151,9.2,9.2,56,0.00,SCT,,0.15,0.0,WeatherDisplay:10.37,2013-07-08 03:54:00,
2013-07-07 22:59:00,83.3,66.0,29.89,SE,128,3.5,3.5,56,0.00,SCT,,0.15,0.0,WeatherDisplay:10.37,2013-07-08 03:59:00,
2013-07-07 23:01:00,83.3,66.5,29.89,SSE,166,2.3,2.3,57,0.00,SCT,,0.15,0.0,WeatherDisplay:10.37,2013-07-08 04:01:00,
2013-07-07 23:06:00,83.0,66.2,29.89,East,94,3.5,3.5,57,0.00,SCT,,0.15,0.0,WeatherDisplay:10.37,2013-07-08 04:06:00,
2013-07-07 23:11:00,82.9,66.1,29.89,SE,146,3.5,3.5,57,0.00,SCT,,0.15,0.0,WeatherDisplay:10.37,2013-07-08 04:11:00,
2013-07-07 23:16:00,82.7,66.4,29.89,South,182,4.6,4.6,58,0.00,SCT,,0.15,0.0,WeatherDisplay:10.37,2013-07-08 04:16:00,
2013-07-07 23:21:00,82.6,66.3,29.89,SSE,153,6.9,6.9,58,0.00,SCT,,0.15,0.0,WeatherDisplay:10.37,2013-07-08 04:21:00,
2013-07-07 23:26:00,82.4,66.6,29.89,SE,138,1.2,1.2,59,0.00,SCT,,0.15,0.0,WeatherDisplay:10.37,2013-07-08 04:26:00,
2013-07-07 23:31:00,82.2,66.4,29.89,SSE,165,4.6,4.6,59,0.00,SCT,,0.15,0.0,WeatherDisplay:10.37,2013-07-08 04:31:00,
2013-07-07 23:36:00,82.0,66.3,29.89,SE,128,8.1,8.1,59,0.00,SCT,,0.15,0.0,WeatherDisplay:10.37,2013-07-08 04:36:00,
2013-07-07 23:41:00,81.9,66.2,29.89,SSE,156,5.8,5.8,59,0.00,SCT,,0.15,0.0,WeatherDisplay:10.37,2013-07-08 04:41:00,
2013-07-07 23:46:00,81.8,66.6,29.89,SSE,154,6.0,6.0,60,0.00,SCT,,0.15,0.0,WeatherDisplay:10.37,2013-07-08 04:46:00,
2013-07-07 23:51:00,81.6,66.4,29.89,SE,138,9.2,9.2,60,0.00,SCT,,0.15,0.0,WeatherDisplay:10.37,2013-07-08 04:51:00,
2013-07-07 23:56:00,81.5,66.3,29.89,SSE,165,4.6,4.6,60,0.00,SCT,,0.15,0.0,WeatherDisplay:10.37,2013-07-08 04:56:00,